Time;durP1;ratioP1;P1;durP2;ratioP2;P2;SDS_P1;SDS_P2;PMS_P1;PMS_P2;Temp;Humidity;BMP_temperature;BMP_pressure;BME280_temperature;BME280_humidity;BME280_pressure;Samples;Min_cycle;Max_cycle;Signal;HPM_P1;HPM_P2
2023/12/01 00:00:06;;;;;;;;;;;26.30;99.80;;;;;;5114260;28;19907;-69
2023/12/01 00:02:32;;;;;;;;;;;26.30;99.50;;;;;;5114005;28;19947;-69
2023/12/01 00:04:59;;;;;;;;;;;26.30;99.70;;;;;;5113821;28;19908;-69
2023/12/01 00:07:26;;;;;;;;;;;26.20;99.80;;;;;;5113838;28;20268;-69
2023/12/01 00:09:52;;;;;;;;;;;26.20;99.90;;;;;;5114826;28;20280;-76
2023/12/01 00:12:19;;;;;;;;;;;26.30;99.90;;;;;;5115089;28;19908;-69
2023/12/01 00:14:45;;;;;;;;;;;26.40;99.90;;;;;;5114200;28;19919;-74
2023/12/01 00:17:12;;;;;;;;;;;26.40;99.60;;;;;;5113709;28;19908;-71
2023/12/01 00:19:40;;;;;;;;;;;26.60;99.90;;;;;;5113720;28;19908;-78
2023/12/01 00:22:07;;;;;;;;;;;26.50;99.90;;;;;;5113915;28;19912;-71
2023/12/01 00:24:34;;;;;;;;;;;26.70;99.90;;;;;;5113759;28;20372;-70
2023/12/01 00:27:00;;;;;;;;;;;26.60;99.90;;;;;;5113901;28;20004;-69
2023/12/01 00:29:28;;;;;;;;;;;26.40;99.90;;;;;;5114380;28;19908;-68
2023/12/01 00:31:54;;;;;;;;;;;26.50;99.90;;;;;;5113626;28;19961;-71
2023/12/01 00:34:21;;;;;;;;;;;26.70;99.90;;;;;;5113741;28;20365;-68
2023/12/01 00:36:47;;;;;;;;;;;26.60;99.90;;;;;;5113404;28;19951;-73
2023/12/01 00:39:14;;;;;;;;;;;26.70;99.90;;;;;;5113819;28;20329;-71
2023/12/01 00:41:41;;;;;;;;;;;26.70;99.90;;;;;;5113392;28;19919;-70
2023/12/01 00:44:07;;;;;;;;;;;26.40;99.90;;;;;;5113222;28;19914;-69
2023/12/01 00:46:34;;;;;;;;;;;26.30;99.90;;;;;;5113228;28;19926;-69
2023/12/01 00:49:00;;;;;;;;;;;26.60;99.90;;;;;;5113255;28;20365;-68
2023/12/01 00:51:27;;;;;;;;;;;26.90;99.90;;;;;;5113514;28;19907;-70
2023/12/01 00:53:57;;;;;;;;;;;27.30;99.90;;;;;;5112214;28;20297;-70
2023/12/01 00:56:24;;;;;;;;;;;27.40;99.90;;;;;;5113230;28;19955;-70
2023/12/01 00:58:51;;;;;;;;;;;27.50;99.90;;;;;;5113502;28;19965;-73
2023/12/01 01:01:17;;;;;;;;;;;27.80;99.90;;;;;;5113618;28;19930;-70
2023/12/01 01:03:44;;;;;;;;;;;28.10;99.90;;;;;;5113326;28;19912;-69
2023/12/01 01:06:10;;;;;;;;;;;28.20;99.90;;;;;;5113180;28;19918;-68
2023/12/01 01:08:37;;;;;;;;;;;28.30;99.90;;;;;;5113250;28;19955;-68
2023/12/01 01:11:04;;;;;;;;;;;28.50;99.90;;;;;;5112952;28;20284;-68
2023/12/01 01:13:32;;;;;;;;;;;28.70;99.70;;;;;;5112761;28;20368;-69
2023/12/01 01:15:58;;;;;;;;;;;28.80;99.90;;;;;;5113050;28;19908;-69
2023/12/01 01:18:25;;;;;;;;;;;28.70;99.10;;;;;;5113008;28;20024;-69
2023/12/01 01:20:52;;;;;;;;;;;28.70;99.60;;;;;;5094748;28;19908;-70
2023/12/01 01:23:18;;;;;;;;;;;28.80;99.50;;;;;;5113116;28;19907;-70
2023/12/01 01:25:45;;;;;;;;;;;29.00;99.30;;;;;;5113194;28;19914;-69
2023/12/01 01:28:11;;;;;;;;;;;29.30;99.00;;;;;;5112743;28;19914;-71
2023/12/01 01:30:38;;;;;;;;;;;29.40;98.70;;;;;;5112559;28;19974;-73
2023/12/01 01:33:05;;;;;;;;;;;29.60;98.50;;;;;;5112555;28;19923;-69
2023/12/01 01:35:32;;;;;;;;;;;29.90;98.60;;;;;;5112727;28;19908;-69
2023/12/01 01:37:58;;;;;;;;;;;29.80;96.80;;;;;;5112806;28;20364;-69
2023/12/01 01:40:25;;;;;;;;;;;29.60;97.10;;;;;;5112778;28;19908;-68
2023/12/01 01:42:51;;;;;;;;;;;29.60;97.50;;;;;;5112816;28;20326;-70
2023/12/01 01:45:18;;;;;;;;;;;29.20;97.60;;;;;;5112809;28;20015;-71
2023/12/01 01:47:45;;;;;;;;;;;29.20;98.00;;;;;;5112731;28;19907;-68
2023/12/01 01:50:12;;;;;;;;;;;29.30;97.90;;;;;;5112769;28;19912;-69
2023/12/01 01:52:40;;;;;;;;;;;29.50;97.80;;;;;;5094170;28;19924;-69
2023/12/01 01:55:07;;;;;;;;;;;29.70;98.20;;;;;;5112843;28;19908;-68
2023/12/01 01:57:36;;;;;;;;;;;29.90;97.80;;;;;;5116353;28;19951;-69
2023/12/01 02:00:05;;;;;;;;;;;30.20;97.70;;;;;;5116513;28;19912;-69
2023/12/01 02:02:33;;;;;;;;;;;30.30;96.80;;;;;;5116483;28;20264;-70
2023/12/01 02:05:00;;;;;;;;;;;30.20;96.80;;;;;;5116554;28;19908;-69
2023/12/01 02:07:27;;;;;;;;;;;30.10;97.10;;;;;;5116467;28;19911;-70
2023/12/01 02:09:57;;;;;;;;;;;30.20;97.10;;;;;;5116331;28;19919;-69
2023/12/01 02:12:23;;;;;;;;;;;30.20;96.60;;;;;;5116021;28;19912;-69
2023/12/01 02:14:50;;;;;;;;;;;30.20;97.20;;;;;;5116261;28;19916;-69
2023/12/01 02:17:17;;;;;;;;;;;30.30;96.80;;;;;;5116041;28;19908;-70
2023/12/01 02:19:43;;;;;;;;;;;30.30;97.10;;;;;;5126095;27;20295;-77
2023/12/01 02:22:10;;;;;;;;;;;30.40;96.50;;;;;;5118093;27;19915;-69
2023/12/01 02:24:36;;;;;;;;;;;30.50;96.20;;;;;;5120705;27;19915;-71
2023/12/01 02:27:03;;;;;;;;;;;30.60;96.40;;;;;;5136205;27;19986;-68
2023/12/01 02:29:30;;;;;;;;;;;30.80;95.70;;;;;;5135977;27;19911;-68
2023/12/01 02:31:57;;;;;;;;;;;30.80;95.70;;;;;;5135978;27;19923;-68
2023/12/01 02:34:24;;;;;;;;;;;30.80;95.20;;;;;;5128284;27;20378;-70
2023/12/01 02:36:53;;;;;;;;;;;31.00;95.40;;;;;;5112530;27;20318;-69
2023/12/01 02:39:20;;;;;;;;;;;31.20;95.10;;;;;;5133737;27;19908;-69
2023/12/01 02:41:48;;;;;;;;;;;31.40;94.40;;;;;;5097376;28;20272;-69
2023/12/01 02:44:15;;;;;;;;;;;31.50;94.50;;;;;;5114801;28;20314;-68
2023/12/01 02:46:42;;;;;;;;;;;31.70;94.20;;;;;;5115234;28;19916;-69
2023/12/01 02:49:08;;;;;;;;;;;32.20;93.90;;;;;;5115237;28;19908;-69
2023/12/01 02:51:35;;;;;;;;;;;32.30;93.90;;;;;;5115041;28;19907;-69
2023/12/01 02:54:01;;;;;;;;;;;32.50;92.30;;;;;;5115172;28;19923;-69
2023/12/01 02:56:28;;;;;;;;;;;32.90;92.30;;;;;;5115105;28;19908;-68
2023/12/01 02:58:55;;;;;;;;;;;32.90;91.80;;;;;;5114963;28;19915;-70
2023/12/01 03:01:23;;;;;;;;;;;32.70;91.40;;;;;;5115179;28;19912;-70
2023/12/01 03:03:51;;;;;;;;;;;31.90;92.50;;;;;;5100284;28;19912;-69
2023/12/01 03:06:18;;;;;;;;;;;31.80;92.50;;;;;;5113588;28;19982;-67
2023/12/01 03:08:46;;;;;;;;;;;31.50;92.50;;;;;;5114573;28;19912;-75
2023/12/01 03:11:12;;;;;;;;;;;31.00;93.40;;;;;;5110437;27;20284;-69
2023/12/01 03:13:39;;;;;;;;;;;31.70;92.80;;;;;;5114493;27;19916;-68
2023/12/01 03:16:06;;;;;;;;;;;33.10;91.50;;;;;;5113764;28;19908;-71
2023/12/01 03:18:33;;;;;;;;;;;33.60;91.00;;;;;;5114378;28;19943;-70
2023/12/01 03:20:59;;;;;;;;;;;34.70;89.70;;;;;;5121788;27;19918;-69
2023/12/01 03:23:26;;;;;;;;;;;35.70;87.20;;;;;;5129606;27;19916;-70
2023/12/01 03:25:53;;;;;;;;;;;36.10;84.40;;;;;;5115333;27;20446;-69
2023/12/01 03:28:19;;;;;;;;;;;35.80;86.60;;;;;;5099682;28;20318;-72
2023/12/01 03:30:46;;;;;;;;;;;36.80;83.70;;;;;;5116206;27;19912;-69
2023/12/01 03:33:13;;;;;;;;;;;37.60;81.50;;;;;;5110877;28;19916;-71
2023/12/01 03:35:39;;;;;;;;;;;37.80;81.50;;;;;;5103594;27;19923;-72
2023/12/01 03:38:06;;;;;;;;;;;37.60;78.00;;;;;;5115858;27;19911;-68
2023/12/01 03:40:33;;;;;;;;;;;36.30;80.50;;;;;;5125429;27;19919;-70
2023/12/01 03:42:59;;;;;;;;;;;34.90;82.40;;;;;;5110087;27;19908;-67
2023/12/01 03:45:26;;;;;;;;;;;33.50;85.00;;;;;;5096774;27;19920;-70
2023/12/01 03:47:53;;;;;;;;;;;32.20;88.00;;;;;;5115460;27;20378;-68
2023/12/01 03:50:19;;;;;;;;;;;30.40;91.00;;;;;;5117581;27;19915;-68
2023/12/01 03:52:47;;;;;;;;;;;29.60;92.20;;;;;;5118285;27;19967;-69
2023/12/01 03:55:14;;;;;;;;;;;28.90;93.70;;;;;;5118525;27;19918;-73
2023/12/01 03:57:41;;;;;;;;;;;28.30;94.50;;;;;;5118095;27;19912;-79
2023/12/01 04:00:18;;;;;;;;;;;28.20;95.20;;;;;;5113914;27;20021;-73
2023/12/01 04:02:46;;;;;;;;;;;28.10;96.00;;;;;;5120840;27;20276;-68
2023/12/01 04:05:21;;;;;;;;;;;28.70;96.60;;;;;;5133808;27;19998;-68
2023/12/01 04:07:51;;;;;;;;;;;30.10;94.00;;;;;;5122820;27;19912;-68
2023/12/01 04:10:18;;;;;;;;;;;31.60;92.30;;;;;;5123600;27;19908;-67
2023/12/01 04:12:45;;;;;;;;;;;31.90;90.70;;;;;;5105183;27;19916;-69
2023/12/01 04:15:13;;;;;;;;;;;32.20;91.10;;;;;;5121193;27;19918;-69
2023/12/01 04:17:42;;;;;;;;;;;33.00;90.10;;;;;;5114890;27;19911;-69
2023/12/01 04:20:21;;;;;;;;;;;34.50;85.50;;;;;;5096963;28;20376;-69
2023/12/01 04:22:52;;;;;;;;;;;35.00;86.00;;;;;;5114347;27;19938;-70
2023/12/01 04:25:19;;;;;;;;;;;36.00;85.90;;;;;;5111591;28;20340;-70
2023/12/01 04:27:49;;;;;;;;;;;37.30;80.70;;;;;;5112580;27;19919;-70
2023/12/01 04:30:16;;;;;;;;;;;37.50;79.80;;;;;;5112423;28;19904;-69
2023/12/01 04:32:46;;;;;;;;;;;38.30;78.10;;;;;;5103141;28;20334;-68
2023/12/01 04:35:13;;;;;;;;;;;38.60;77.80;;;;;;5108614;27;19918;-71
2023/12/01 04:37:42;;;;;;;;;;;38.90;76.50;;;;;;5112805;28;19908;-71
2023/12/01 04:40:15;;;;;;;;;;;39.30;74.20;;;;;;5117531;27;19911;-70
2023/12/01 04:42:44;;;;;;;;;;;40.00;72.40;;;;;;5100017;28;20002;-72
2023/12/01 04:45:14;;;;;;;;;;;40.00;71.80;;;;;;5111362;28;19977;-72
2023/12/01 04:47:44;;;;;;;;;;;40.30;71.00;;;;;;5111615;28;20249;-76
2023/12/01 04:50:15;;;;;;;;;;;40.00;72.10;;;;;;5110077;28;19915;-76
2023/12/01 04:52:44;;;;;;;;;;;39.30;72.00;;;;;;5110662;28;20376;-72
2023/12/01 04:55:12;;;;;;;;;;;38.80;72.90;;;;;;5099616;28;20020;-69
2023/12/01 04:57:38;;;;;;;;;;;38.90;73.00;;;;;;5116333;27;19916;-75
2023/12/01 05:00:27;;;;;;;;;;;39.20;72.20;;;;;;5112008;28;19912;-72
2023/12/01 05:02:54;;;;;;;;;;;39.20;72.10;;;;;;5109117;28;19976;-68
2023/12/01 05:05:22;;;;;;;;;;;39.00;71.80;;;;;;5109040;28;19912;-70
2023/12/01 05:07:51;;;;;;;;;;;38.10;73.20;;;;;;5111280;28;19919;-73
2023/12/01 05:10:19;;;;;;;;;;;37.40;74.80;;;;;;5111394;28;20420;-76
2023/12/01 05:12:49;;;;;;;;;;;36.30;75.50;;;;;;5109691;28;19925;-77
2023/12/01 05:15:20;;;;;;;;;;;34.80;79.30;;;;;;5111691;28;20314;-78
2023/12/01 05:18:01;;;;;;;;;;;34.20;80.30;;;;;;5111275;28;19934;-80
2023/12/01 05:20:28;;;;;;;;;;;34.40;80.70;;;;;;5111035;28;19911;-81
2023/12/01 05:23:09;;;;;;;;;;;34.90;79.70;;;;;;5111445;28;20352;-68
2023/12/01 05:25:37;;;;;;;;;;;35.30;78.70;;;;;;5111089;28;19938;-74
2023/12/01 05:28:06;;;;;;;;;;;34.10;80.30;;;;;;5110997;28;19912;-70
2023/12/01 05:30:36;;;;;;;;;;;34.20;80.10;;;;;;5113923;28;20076;-76
2023/12/01 05:33:06;;;;;;;;;;;33.40;82.00;;;;;;5103686;28;19912;-81
2023/12/01 05:35:36;;;;;;;;;;;32.20;85.00;;;;;;5115129;28;20062;-71
2023/12/01 05:38:06;;;;;;;;;;;31.80;85.50;;;;;;5115724;28;19912;-69
2023/12/01 05:40:35;;;;;;;;;;;31.80;87.30;;;;;;5115673;28;20399;-67
2023/12/01 05:43:02;;;;;;;;;;;31.80;86.20;;;;;;5114534;28;19914;-67
2023/12/01 05:45:33;;;;;;;;;;;32.40;84.50;;;;;;5118138;27;19908;-68
2023/12/01 05:48:00;;;;;;;;;;;33.00;83.90;;;;;;5136277;27;19911;-67
2023/12/01 05:50:28;;;;;;;;;;;33.30;82.00;;;;;;5136524;27;19915;-67
2023/12/01 05:52:56;;;;;;;;;;;33.20;82.40;;;;;;5113569;27;19925;-67
2023/12/01 05:55:24;;;;;;;;;;;32.70;83.40;;;;;;5097582;27;19912;-69
2023/12/01 05:57:52;;;;;;;;;;;32.20;85.10;;;;;;5115383;28;19908;-68
2023/12/01 06:00:20;;;;;;;;;;;31.00;88.20;;;;;;5133331;27;19934;-69
2023/12/01 06:02:47;;;;;;;;;;;30.40;88.50;;;;;;5125676;27;19907;-71
2023/12/01 06:05:15;;;;;;;;;;;29.60;90.60;;;;;;5111144;27;19915;-74
2023/12/01 06:07:42;;;;;;;;;;;28.90;91.70;;;;;;5112101;28;19998;-67
2023/12/01 06:10:09;;;;;;;;;;;28.70;92.90;;;;;;5115480;28;19911;-70
2023/12/01 06:12:39;;;;;;;;;;;28.40;93.40;;;;;;5106630;28;19912;-69
2023/12/01 06:15:07;;;;;;;;;;;28.20;93.40;;;;;;5112945;28;19908;-69
2023/12/01 06:17:33;;;;;;;;;;;28.00;93.30;;;;;;5116548;27;19970;-67
2023/12/01 06:20:00;;;;;;;;;;;27.70;93.80;;;;;;5115395;28;19908;-68
2023/12/01 06:22:27;;;;;;;;;;;27.30;94.30;;;;;;5107834;28;19912;-74
2023/12/01 06:24:54;;;;;;;;;;;27.10;94.70;;;;;;5115777;27;19972;-70
2023/12/01 06:27:22;;;;;;;;;;;26.90;95.10;;;;;;5095100;28;20010;-71
2023/12/01 06:29:52;;;;;;;;;;;26.70;95.80;;;;;;5116286;27;20011;-67
2023/12/01 06:32:18;;;;;;;;;;;26.60;96.10;;;;;;5117108;27;19920;-68
2023/12/01 06:34:45;;;;;;;;;;;26.50;97.00;;;;;;5092495;28;19916;-66
2023/12/01 06:37:12;;;;;;;;;;;26.30;97.90;;;;;;5092815;28;19961;-69
2023/12/01 06:39:39;;;;;;;;;;;26.20;97.60;;;;;;5093630;28;19930;-67
2023/12/01 06:42:06;;;;;;;;;;;26.10;97.60;;;;;;5093078;28;19915;-67
2023/12/01 06:44:34;;;;;;;;;;;26.00;97.90;;;;;;5095083;28;19934;-68
2023/12/01 06:47:01;;;;;;;;;;;26.00;98.40;;;;;;5094860;28;19956;-67
2023/12/01 06:49:27;;;;;;;;;;;26.00;98.90;;;;;;5095186;28;20270;-66
2023/12/01 06:51:54;;;;;;;;;;;26.10;99.30;;;;;;5095360;28;19916;-71
2023/12/01 06:54:21;;;;;;;;;;;26.10;99.50;;;;;;5095088;28;20283;-66
2023/12/01 06:56:48;;;;;;;;;;;26.10;99.70;;;;;;5094967;28;19961;-66
2023/12/01 06:59:14;;;;;;;;;;;26.00;99.90;;;;;;5094534;28;20387;-67
2023/12/01 07:01:41;;;;;;;;;;;26.00;99.90;;;;;;5095016;28;19912;-68
2023/12/01 07:04:07;;;;;;;;;;;26.10;99.90;;;;;;5095101;28;19915;-67
2023/12/01 07:06:36;;;;;;;;;;;26.00;99.90;;;;;;5095066;28;19908;-68
2023/12/01 07:09:03;;;;;;;;;;;26.10;99.90;;;;;;5094611;28;19930;-67
2023/12/01 07:11:30;;;;;;;;;;;26.00;99.90;;;;;;5094665;28;20341;-67
2023/12/01 07:13:56;;;;;;;;;;;26.00;99.90;;;;;;5095004;28;19916;-67
2023/12/01 07:16:23;;;;;;;;;;;26.10;99.90;;;;;;5094411;28;19908;-69
2023/12/01 07:18:51;;;;;;;;;;;26.20;99.90;;;;;;5094999;28;19908;-72
2023/12/01 07:21:17;;;;;;;;;;;26.20;99.90;;;;;;5094579;28;19908;-68
2023/12/01 07:23:46;;;;;;;;;;;26.30;99.90;;;;;;5094539;28;19915;-67
2023/12/01 07:26:12;;;;;;;;;;;26.20;99.90;;;;;;5094288;28;20284;-68
2023/12/01 07:28:39;;;;;;;;;;;26.10;99.90;;;;;;5095017;28;19914;-68
2023/12/01 07:31:05;;;;;;;;;;;25.90;99.90;;;;;;5094513;28;19908;-68
2023/12/01 07:33:32;;;;;;;;;;;25.90;99.90;;;;;;5094169;28;19923;-71
2023/12/01 07:35:59;;;;;;;;;;;25.80;99.90;;;;;;5094118;28;19908;-68
2023/12/01 07:38:25;;;;;;;;;;;25.60;99.90;;;;;;5093961;28;19908;-67
2023/12/01 07:40:52;;;;;;;;;;;25.50;99.90;;;;;;5094191;28;19912;-70
2023/12/01 07:43:21;;;;;;;;;;;25.30;99.90;;;;;;5075796;28;20330;-70
2023/12/01 07:45:47;;;;;;;;;;;25.20;99.90;;;;;;5093884;28;19951;-68
2023/12/01 07:48:14;;;;;;;;;;;25.10;99.90;;;;;;5093606;28;19922;-70
2023/12/01 07:50:41;;;;;;;;;;;25.00;99.90;;;;;;5093968;28;20360;-75
2023/12/01 07:53:08;;;;;;;;;;;24.90;99.90;;;;;;5093097;28;19927;-71
2023/12/01 07:55:34;;;;;;;;;;;24.80;99.90;;;;;;5093587;28;19915;-69
2023/12/01 07:58:01;;;;;;;;;;;24.80;99.90;;;;;;5093568;28;20052;-68
2023/12/01 08:00:27;;;;;;;;;;;24.90;99.90;;;;;;5093872;28;20268;-68
2023/12/01 08:02:54;;;;;;;;;;;24.80;99.90;;;;;;5093976;28;19909;-72
2023/12/01 08:05:21;;;;;;;;;;;24.70;99.90;;;;;;5093679;28;19912;-66
2023/12/01 08:07:54;;;;;;;;;;;24.60;99.90;;;;;;5093719;28;19909;-69
2023/12/01 08:10:22;;;;;;;;;;;24.50;99.90;;;;;;5093723;28;19977;-69
2023/12/01 08:12:49;;;;;;;;;;;24.30;99.90;;;;;;5093516;28;20388;-71
2023/12/01 08:15:16;;;;;;;;;;;24.30;99.90;;;;;;5093359;28;19908;-68
2023/12/01 08:17:44;;;;;;;;;;;24.20;99.90;;;;;;5093427;28;19908;-68
2023/12/01 08:20:11;;;;;;;;;;;24.20;99.90;;;;;;5093763;28;19919;-70
2023/12/01 08:22:38;;;;;;;;;;;24.10;99.90;;;;;;5093600;28;19940;-68
2023/12/01 08:25:06;;;;;;;;;;;23.90;99.90;;;;;;5093080;28;20361;-67
2023/12/01 08:27:33;;;;;;;;;;;23.80;99.90;;;;;;5093278;28;20029;-70
2023/12/01 08:30:00;;;;;;;;;;;23.80;99.90;;;;;;5093446;28;19915;-69
2023/12/01 08:32:26;;;;;;;;;;;23.80;99.90;;;;;;5093340;28;19920;-69
2023/12/01 08:34:54;;;;;;;;;;;23.70;99.90;;;;;;5074934;28;20321;-70
2023/12/01 08:37:21;;;;;;;;;;;23.70;99.90;;;;;;5093248;28;19908;-70
2023/12/01 08:39:49;;;;;;;;;;;23.70;99.90;;;;;;5092936;28;19965;-67
2023/12/01 08:42:15;;;;;;;;;;;23.60;99.90;;;;;;5093127;28;19908;-69
2023/12/01 08:44:42;;;;;;;;;;;23.60;99.90;;;;;;5093885;28;20368;-68
2023/12/01 08:47:09;;;;;;;;;;;23.60;99.90;;;;;;5093089;28;19908;-68
2023/12/01 08:49:36;;;;;;;;;;;23.60;99.90;;;;;;5092778;28;19911;-67
2023/12/01 08:52:03;;;;;;;;;;;23.50;99.90;;;;;;5092884;28;20326;-75
2023/12/01 08:54:29;;;;;;;;;;;23.40;99.90;;;;;;5093131;28;19961;-70
2023/12/01 08:56:58;;;;;;;;;;;23.30;99.90;;;;;;5093346;28;19931;-72
2023/12/01 08:59:27;;;;;;;;;;;23.30;99.90;;;;;;5092674;28;19909;-67
2023/12/01 09:01:53;;;;;;;;;;;23.30;99.90;;;;;;5093194;28;19908;-70
2023/12/01 09:04:21;;;;;;;;;;;23.20;99.90;;;;;;5092617;28;19908;-66
2023/12/01 09:06:47;;;;;;;;;;;23.20;99.90;;;;;;5092543;28;19909;-69
2023/12/01 09:09:14;;;;;;;;;;;23.10;99.90;;;;;;5093050;28;20336;-69
2023/12/01 09:11:40;;;;;;;;;;;23.10;99.90;;;;;;5092754;28;19912;-68
2023/12/01 09:14:07;;;;;;;;;;;23.00;99.90;;;;;;5092863;28;19962;-68
2023/12/01 09:16:33;;;;;;;;;;;23.00;99.90;;;;;;5092846;28;19908;-68
2023/12/01 09:19:00;;;;;;;;;;;23.00;99.90;;;;;;5092786;28;19967;-70
2023/12/01 09:21:27;;;;;;;;;;;22.90;99.90;;;;;;5092934;28;19915;-67
2023/12/01 09:23:53;;;;;;;;;;;22.90;99.90;;;;;;5092623;28;19912;-67
2023/12/01 09:26:20;;;;;;;;;;;22.80;99.90;;;;;;5092571;28;20320;-68
2023/12/01 09:28:48;;;;;;;;;;;22.80;99.90;;;;;;5092802;28;19908;-69
2023/12/01 09:31:15;;;;;;;;;;;22.70;99.90;;;;;;5092850;28;19908;-71
2023/12/01 09:33:42;;;;;;;;;;;22.70;99.90;;;;;;5092495;28;19939;-67
2023/12/01 09:36:10;;;;;;;;;;;22.70;99.90;;;;;;5092607;28;20332;-70
2023/12/01 09:38:37;;;;;;;;;;;22.60;99.90;;;;;;5092293;28;19973;-71
2023/12/01 09:41:03;;;;;;;;;;;22.60;99.90;;;;;;5092427;28;19942;-67
2023/12/01 09:43:31;;;;;;;;;;;22.60;99.90;;;;;;5092247;28;19954;-69
2023/12/01 09:45:59;;;;;;;;;;;22.50;99.90;;;;;;5092397;28;20258;-68
2023/12/01 09:48:25;;;;;;;;;;;22.50;99.90;;;;;;5092443;28;19915;-68
2023/12/01 09:50:52;;;;;;;;;;;22.50;99.90;;;;;;5092332;28;19908;-67
2023/12/01 09:53:19;;;;;;;;;;;22.60;99.90;;;;;;5092278;28;19962;-69
2023/12/01 09:55:45;;;;;;;;;;;22.50;99.90;;;;;;5092373;28;19915;-68
2023/12/01 09:58:13;;;;;;;;;;;22.50;99.90;;;;;;5092190;28;20284;-68
2023/12/01 10:00:39;;;;;;;;;;;22.50;99.90;;;;;;5092304;28;19947;-69
2023/12/01 10:03:06;;;;;;;;;;;22.50;99.90;;;;;;5091865;28;19909;-67
2023/12/01 10:05:35;;;;;;;;;;;22.50;99.90;;;;;;5092351;28;20417;-68
2023/12/01 10:08:03;;;;;;;;;;;22.40;99.90;;;;;;5092341;28;19909;-67
2023/12/01 10:10:32;;;;;;;;;;;22.40;99.90;;;;;;5092341;28;20365;-68
2023/12/01 10:13:05;;;;;;;;;;;22.50;99.90;;;;;;5092275;28;19926;-69
2023/12/01 10:15:32;;;;;;;;;;;22.50;99.90;;;;;;5091938;28;19919;-66
2023/12/01 10:18:12;;;;;;;;;;;22.40;99.90;;;;;;5094550;28;19908;-68
2023/12/01 10:20:42;;;;;;;;;;;22.40;99.90;;;;;;5095963;28;19914;-68
2023/12/01 10:23:18;;;;;;;;;;;22.50;99.90;;;;;;5095887;28;19991;-67
2023/12/01 10:25:49;;;;;;;;;;;22.50;99.90;;;;;;5095841;28;19908;-68
2023/12/01 10:28:16;;;;;;;;;;;22.50;99.90;;;;;;5095565;28;19931;-67
2023/12/01 10:30:53;;;;;;;;;;;22.60;99.90;;;;;;5077351;28;19908;-69
2023/12/01 10:33:23;;;;;;;;;;;22.60;99.90;;;;;;5095681;28;19912;-67
2023/12/01 10:36:03;;;;;;;;;;;22.50;99.90;;;;;;5095678;28;19919;-67
2023/12/01 10:38:30;;;;;;;;;;;22.40;99.90;;;;;;5095440;28;19908;-70
2023/12/01 10:40:58;;;;;;;;;;;22.40;99.90;;;;;;5095317;28;20342;-70
2023/12/01 10:43:26;;;;;;;;;;;22.40;99.90;;;;;;5095471;28;19999;-68
2023/12/01 10:45:53;;;;;;;;;;;22.30;99.90;;;;;;5095236;28;19908;-68
2023/12/01 10:48:22;;;;;;;;;;;22.30;99.90;;;;;;5094844;28;19991;-71
2023/12/01 10:50:49;;;;;;;;;;;22.30;99.90;;;;;;5094931;28;19913;-68
2023/12/01 10:53:16;;;;;;;;;;;22.30;99.90;;;;;;5094613;28;20293;-68
2023/12/01 10:55:47;;;;;;;;;;;22.30;99.90;;;;;;5094880;28;20167;-73
2023/12/01 10:58:24;;;;;;;;;;;22.30;99.90;;;;;;5094903;28;19991;-69
2023/12/01 11:00:52;;;;;;;;;;;22.30;99.90;;;;;;5094459;28;19908;-68
2023/12/01 11:03:19;;;;;;;;;;;22.30;99.90;;;;;;5094768;28;19912;-69
2023/12/01 11:05:51;;;;;;;;;;;22.30;99.90;;;;;;5094691;28;19916;-69
2023/12/01 11:08:27;;;;;;;;;;;22.30;99.90;;;;;;5094898;28;19908;-68
2023/12/01 11:11:11;;;;;;;;;;;22.30;99.90;;;;;;5095002;28;19908;-65
2023/12/01 11:13:40;;;;;;;;;;;22.30;99.90;;;;;;5094700;28;19920;-66
2023/12/01 11:16:07;;;;;;;;;;;22.20;99.90;;;;;;5094642;28;19908;-67
2023/12/01 11:18:34;;;;;;;;;;;22.20;99.90;;;;;;5094539;28;19904;-68
2023/12/01 11:21:05;;;;;;;;;;;22.20;99.90;;;;;;5094824;28;19912;-68
2023/12/01 11:23:33;;;;;;;;;;;22.20;99.90;;;;;;5094493;28;19908;-68
2023/12/01 11:26:06;;;;;;;;;;;22.10;99.90;;;;;;5094720;28;19915;-68
2023/12/01 11:31:28;;;;;;;;;;;22.20;99.90;;;;;;5094416;28;19914;-68
2023/12/01 11:33:57;;;;;;;;;;;22.10;99.90;;;;;;5094433;28;19923;-67
2023/12/01 11:36:27;;;;;;;;;;;22.00;99.90;;;;;;5094757;28;20290;-68
2023/12/01 11:39:17;;;;;;;;;;;22.10;99.90;;;;;;5094429;28;19908;-68
2023/12/01 11:41:49;;;;;;;;;;;22.00;99.90;;;;;;5094416;28;19953;-69
2023/12/01 11:44:29;;;;;;;;;;;22.00;99.90;;;;;;5094055;28;19915;-68
2023/12/01 11:46:57;;;;;;;;;;;22.10;99.90;;;;;;5094422;28;19915;-68
2023/12/01 11:49:23;;;;;;;;;;;22.10;99.90;;;;;;5093892;28;19915;-68
2023/12/01 11:51:50;;;;;;;;;;;22.10;99.90;;;;;;5094320;28;19927;-69
2023/12/01 11:54:17;;;;;;;;;;;22.10;99.90;;;;;;5094074;28;19916;-69
2023/12/01 11:56:51;;;;;;;;;;;22.10;99.90;;;;;;5093683;28;19908;-68
2023/12/01 11:59:18;;;;;;;;;;;22.10;99.90;;;;;;5093847;28;19908;-68
2023/12/01 12:01:46;;;;;;;;;;;22.10;99.90;;;;;;5093902;28;19912;-69
2023/12/01 12:04:16;;;;;;;;;;;22.10;99.90;;;;;;5094149;28;19912;-68
2023/12/01 12:06:44;;;;;;;;;;;22.10;99.90;;;;;;5094469;28;19912;-68
2023/12/01 12:09:17;;;;;;;;;;;22.00;99.90;;;;;;5075811;28;19920;-67
2023/12/01 12:11:45;;;;;;;;;;;22.10;99.90;;;;;;5094163;28;19908;-67
2023/12/01 12:14:13;;;;;;;;;;;22.10;99.90;;;;;;5093471;28;19961;-68
2023/12/01 12:16:40;;;;;;;;;;;22.10;99.90;;;;;;5093595;28;19915;-67
2023/12/01 12:19:06;;;;;;;;;;;22.10;99.90;;;;;;5093395;28;19916;-67
2023/12/01 12:21:34;;;;;;;;;;;22.10;99.90;;;;;;5093493;28;19908;-67
2023/12/01 12:24:00;;;;;;;;;;;22.20;99.90;;;;;;5093508;28;19950;-67
2023/12/01 12:26:28;;;;;;;;;;;22.10;99.90;;;;;;5093715;28;19943;-72
2023/12/01 12:28:58;;;;;;;;;;;22.10;99.90;;;;;;5093267;28;19915;-70
2023/12/01 12:31:36;;;;;;;;;;;22.10;99.90;;;;;;5093592;28;19915;-68
2023/12/01 12:34:04;;;;;;;;;;;22.10;99.90;;;;;;5093270;28;19916;-67
2023/12/01 12:36:32;;;;;;;;;;;22.10;99.90;;;;;;5093355;28;19916;-67
2023/12/01 12:39:00;;;;;;;;;;;22.10;99.90;;;;;;5092905;28;19915;-68
2023/12/01 12:41:28;;;;;;;;;;;22.00;99.90;;;;;;5093248;28;20372;-67
2023/12/01 12:43:56;;;;;;;;;;;22.00;99.90;;;;;;5093552;28;19908;-67
2023/12/01 12:46:22;;;;;;;;;;;22.00;99.90;;;;;;5093324;28;19908;-68
2023/12/01 12:48:50;;;;;;;;;;;22.00;99.90;;;;;;5092921;28;20020;-67
2023/12/01 12:51:17;;;;;;;;;;;22.00;99.90;;;;;;5093125;28;19915;-68
2023/12/01 12:53:45;;;;;;;;;;;22.00;99.90;;;;;;5074812;28;19942;-66
2023/12/01 12:56:13;;;;;;;;;;;22.00;99.90;;;;;;5093266;28;19912;-68
2023/12/01 12:58:43;;;;;;;;;;;21.90;99.90;;;;;;5092936;28;19915;-68
2023/12/01 13:01:10;;;;;;;;;;;21.90;99.90;;;;;;5092872;28;19908;-68
2023/12/01 13:03:39;;;;;;;;;;;21.80;99.90;;;;;;5092974;28;20319;-67
2023/12/01 13:06:07;;;;;;;;;;;21.90;99.90;;;;;;5093393;28;20258;-67
2023/12/01 13:08:33;;;;;;;;;;;21.90;99.90;;;;;;5092962;28;20288;-67
2023/12/01 13:11:01;;;;;;;;;;;21.80;99.90;;;;;;5092792;28;19908;-67
2023/12/01 13:13:27;;;;;;;;;;;21.80;99.90;;;;;;5092872;28;20360;-67
2023/12/01 13:15:54;;;;;;;;;;;21.80;99.90;;;;;;5093021;28;20018;-68
2023/12/01 13:18:23;;;;;;;;;;;21.80;99.90;;;;;;5092724;28;19935;-68
2023/12/01 13:20:50;;;;;;;;;;;21.80;99.90;;;;;;5092733;28;20288;-69
2023/12/01 13:23:17;;;;;;;;;;;21.80;99.90;;;;;;5092760;28;19908;-68
2023/12/01 13:25:44;;;;;;;;;;;21.80;99.90;;;;;;5092752;28;19908;-66
2023/12/01 13:28:14;;;;;;;;;;;21.80;99.90;;;;;;5092722;28;19977;-66
2023/12/01 13:30:41;;;;;;;;;;;21.70;99.90;;;;;;5092721;28;20272;-67
2023/12/01 13:33:08;;;;;;;;;;;21.70;99.90;;;;;;5092815;28;20003;-65
2023/12/01 13:35:35;;;;;;;;;;;21.70;99.90;;;;;;5092675;28;19915;-69
2023/12/01 13:38:02;;;;;;;;;;;21.70;99.90;;;;;;5092505;28;19919;-68
2023/12/01 13:40:29;;;;;;;;;;;21.70;99.90;;;;;;5092599;28;19909;-69
2023/12/01 13:42:56;;;;;;;;;;;21.70;99.90;;;;;;5092839;28;20356;-68
2023/12/01 13:45:23;;;;;;;;;;;21.70;99.90;;;;;;5092404;28;20342;-66
2023/12/01 13:47:50;;;;;;;;;;;21.70;99.90;;;;;;5092368;28;19915;-68
2023/12/01 13:50:18;;;;;;;;;;;21.80;99.90;;;;;;5092495;28;19908;-71
2023/12/01 13:52:45;;;;;;;;;;;21.70;99.90;;;;;;5094502;28;20401;-69
2023/12/01 13:55:12;;;;;;;;;;;21.70;99.90;;;;;;5096356;28;19961;-70
2023/12/01 13:57:39;;;;;;;;;;;21.70;99.90;;;;;;5096154;28;19954;-68
2023/12/01 14:00:09;;;;;;;;;;;21.80;99.90;;;;;;5096599;28;19947;-68
2023/12/01 14:02:36;;;;;;;;;;;21.80;99.90;;;;;;5096107;28;19908;-69
2023/12/01 14:05:03;;;;;;;;;;;21.70;99.90;;;;;;5096643;28;20344;-67
2023/12/01 14:07:29;;;;;;;;;;;21.70;99.90;;;;;;5096579;28;19919;-68
2023/12/01 14:09:56;;;;;;;;;;;21.70;99.90;;;;;;5096224;28;19915;-69
2023/12/01 14:12:23;;;;;;;;;;;21.70;99.90;;;;;;5096094;28;19961;-68
2023/12/01 14:14:50;;;;;;;;;;;21.70;99.90;;;;;;5095705;28;19916;-67
2023/12/01 14:17:16;;;;;;;;;;;21.70;99.90;;;;;;5095764;28;19908;-68
2023/12/01 14:19:43;;;;;;;;;;;21.70;99.90;;;;;;5095846;28;20280;-68
2023/12/01 14:22:13;;;;;;;;;;;21.70;99.90;;;;;;5095857;28;19909;-67